| time (UTC) | temp F | wind direction | speed knots | gust knots | rain 1hr in | rain 24hr in | rain mn in | humidity % | barometer mb |
| 20260504191513 | 83 | 82 | 3.5 | 10.4 | 0.00 | 0.00 | 0.00 | 47 | 1014.7 |
| 20260504190010 | 81 | 49 | 1.7 | 9.6 | 0.00 | 0.00 | 0.00 | 48 | 1014.9 |
| 20260504184509 | 81 | 81 | 7.0 | 10.4 | 0.00 | 0.00 | 0.00 | 48 | 1015.1 |
| 20260504183010 | 81 | 109 | 2.6 | 10.4 | 0.00 | 0.00 | 0.00 | 48 | 1015.4 |
| 20260504181506 | 82 | 104 | 4.3 | 10.4 | 0.00 | 0.00 | 0.00 | 46 | 1015.5 |
| 20260504180003 | 80 | 41 | 2.6 | 12.2 | 0.00 | 0.00 | 0.00 | 46 | 1015.7 |
| 20260504174502 | 81 | 103 | 5.2 | 9.6 | 0.00 | 0.00 | 0.00 | 47 | 1016.4 |
| 20260504173001 | 79 | 97 | 4.3 | 13.9 | 0.00 | 0.00 | 0.00 | 50 | 1016.2 |
| 20260504171609 | 80 | 360 | 6.1 | 11.3 | 0.00 | 0.00 | 0.00 | 48 | 1016.2 |
| 20260504081515 | 67 | 48 | 4.3 | 8.7 | 0.00 | 0.00 | 0.00 | 80 | 1015.7 |
| 20260504044553 | 71 | 69 | 6.1 | 10.4 | 0.00 | 0.00 | 0.00 | 75 | 1016.9 |
| 20260504043056 | 71 | 62 | 4.3 | 13.0 | 0.00 | 0.00 | 0.00 | 75 | 1016.6 |
| 20260504041547 | 72 | 76 | 6.1 | 8.7 | 0.00 | 0.00 | 0.00 | 75 | 1017.1 |
| 20260504040046 | 71 | 64 | 4.3 | 6.1 | 0.00 | 0.00 | 0.00 | 74 | 1017.2 |
| 20260504034550 | 71 | 67 | 2.6 | 8.7 | 0.00 | 0.00 | 0.00 | 72 | 1017.2 |
| 20260504033043 | 72 | 55 | 3.5 | 6.1 | 0.00 | 0.00 | 0.00 | 71 | 1017.3 |
| 20260504031544 | 72 | 44 | 2.6 | 7.0 | 0.00 | 0.00 | 0.00 | 70 | 1017.3 |
| 20260504030042 | 72 | 34 | 4.3 | 10.4 | 0.00 | 0.00 | 0.00 | 69 | 1017.1 |
| 20260504024547 | 72 | 355 | 5.2 | 9.6 | 0.00 | 0.00 | 0.00 | 69 | 1017.0 |
| 20260504023041 | 72 | 343 | 3.5 | 10.4 | 0.00 | 0.00 | 0.00 | 69 | 1016.9 |
| 20260504021541 | 72 | 13 | 6.1 | 10.4 | 0.00 | 0.00 | 0.00 | 69 | 1016.7 |
| 20260504020042 | 72 | 55 | 4.3 | 9.6 | 0.00 | 0.00 | 0.00 | 70 | 1016.5 |
| 20260504014541 | 72 | 31 | 5.2 | 8.7 | 0.00 | 0.00 | 0.00 | 70 | 1016.5 |
| 20260504013054 | 73 | 9 | 7.8 | 11.3 | 0.00 | 0.00 | 0.00 | 69 | 1016.0 |
| 20260504011539 | 73 | 54 | 5.2 | 11.3 | 0.00 | 0.00 | 0.00 | 69 | 1016.0 |
| 20260504010041 | 73 | 40 | 6.1 | 12.2 | 0.00 | 0.00 | 0.00 | 69 | 1015.7 |
| 20260504004537 | 73 | 28 | 3.5 | 9.6 | 0.00 | 0.00 | 0.00 | 69 | 1015.6 |
| 20260504003037 | 73 | 351 | 7.8 | 13.0 | 0.00 | 0.00 | 0.00 | 72 | 1015.4 |
| 20260504001540 | 74 | 337 | 9.6 | 13.0 | 0.00 | 0.00 | 0.00 | 72 | 1015.3 |
| 20260504000036 | 74 | 345 | 7.0 | 13.0 | 0.00 | 0.00 | 0.00 | 71 | 1015.1 |
| 20260503234536 | 74 | 343 | 9.6 | 13.9 | 0.00 | 0.00 | 0.00 | 70 | 1015.2 |
| 20260503233035 | 74 | 355 | 7.0 | 13.0 | 0.00 | 0.00 | 0.00 | 71 | 1015.2 |
| 20260503231535 | 74 | 341 | 6.1 | 13.9 | 0.00 | 0.00 | 0.00 | 71 | 1015.2 |
| 20260503230039 | 74 | 360 | 7.8 | 13.0 | 0.00 | 0.00 | 0.00 | 70 | 1015.1 |
| 20260503224534 | 74 | 284 | 7.8 | 13.0 | 0.00 | 0.01 | 0.00 | 69 | 1015.2 |
| 20260503223034 | 75 | 290 | 6.1 | 14.8 | 0.00 | 0.01 | 0.00 | 70 | 1015.2 |
| 20260503221533 | 75 | 360 | 7.0 | 14.8 | 0.00 | 0.01 | 0.00 | 69 | 1015.2 |
| 20260503220032 | 75 | 346 | 9.6 | 14.8 | 0.00 | 0.01 | 0.00 | 68 | 1015.2 |
| 20260503214538 | 75 | 360 | 6.1 | 14.8 | 0.00 | 0.06 | 0.00 | 68 | 1015.2 |
| 20260503213030 | 76 | 332 | 8.7 | 13.9 | 0.00 | 0.06 | 0.00 | 66 | 1015.2 |
| 20260503211530 | 76 | 292 | 5.2 | 11.3 | 0.00 | 0.06 | 0.00 | 66 | 1015.4 |
| 20260503210029 | 76 | 338 | 4.3 | 12.2 | 0.00 | 0.06 | 0.00 | 67 | 1015.3 |
| 20260503204530 | 75 | 335 | 7.8 | 13.0 | 0.00 | 0.09 | 0.00 | 66 | 1015.4 |
| 20260503203035 | 76 | 342 | 6.1 | 13.9 | 0.00 | 0.09 | 0.00 | 66 | 1015.5 |
| 20260503201529 | 76 | 288 | 4.3 | 10.4 | 0.00 | 0.09 | 0.00 | 65 | 1015.6 |
| 20260503200029 | 76 | 309 | 7.8 | 12.2 | 0.00 | 0.09 | 0.00 | 65 | 1016.0 |
| 20260503194527 | 76 | 311 | 7.0 | 13.9 | 0.00 | 0.20 | 0.00 | 65 | 1016.1 |
| 20260503193041 | 77 | 18 | 7.0 | 14.8 | 0.00 | 0.20 | 0.00 | 60 | 1016.2 |